sensor_id;sensor_type;location;lat;lon;timestamp;P1;durP1;ratioP1;P2;durP2;ratioP2
55288;SDS011;41154;45.394;5.734;2022-08-23T00:01:26;4.78;;;1.58;;
55288;SDS011;41154;45.394;5.734;2022-08-23T00:03:55;3.83;;;1.70;;
55288;SDS011;41154;45.394;5.734;2022-08-23T00:06:23;2.92;;;2.20;;
55288;SDS011;41154;45.394;5.734;2022-08-23T00:08:49;6.07;;;2.40;;
55288;SDS011;41154;45.394;5.734;2022-08-23T00:11:24;6.60;;;2.90;;
55288;SDS011;41154;45.394;5.734;2022-08-23T00:16:17;3.83;;;2.13;;
55288;SDS011;41154;45.394;5.734;2022-08-23T00:18:43;2.85;;;1.67;;
55288;SDS011;41154;45.394;5.734;2022-08-23T00:21:10;2.72;;;1.50;;
55288;SDS011;41154;45.394;5.734;2022-08-23T00:23:37;2.80;;;1.70;;
55288;SDS011;41154;45.394;5.734;2022-08-23T00:26:03;2.90;;;1.50;;
55288;SDS011;41154;45.394;5.734;2022-08-23T00:28:29;5.40;;;1.60;;
55288;SDS011;41154;45.394;5.734;2022-08-23T00:30:55;3.70;;;1.60;;
55288;SDS011;41154;45.394;5.734;2022-08-23T00:33:22;5.30;;;1.65;;
55288;SDS011;41154;45.394;5.734;2022-08-23T00:35:48;3.67;;;1.73;;
55288;SDS011;41154;45.394;5.734;2022-08-23T00:38:14;2.22;;;1.48;;
55288;SDS011;41154;45.394;5.734;2022-08-23T00:40:44;3.65;;;1.85;;
55288;SDS011;41154;45.394;5.734;2022-08-23T00:43:13;2.30;;;1.63;;
55288;SDS011;41154;45.394;5.734;2022-08-23T00:46:04;3.47;;;1.70;;
55288;SDS011;41154;45.394;5.734;2022-08-23T00:48:58;3.88;;;1.73;;
55288;SDS011;41154;45.394;5.734;2022-08-23T00:51:33;5.13;;;1.85;;
55288;SDS011;41154;45.394;5.734;2022-08-23T00:54:10;3.78;;;1.70;;
55288;SDS011;41154;45.394;5.734;2022-08-23T00:56:41;5.05;;;1.80;;
55288;SDS011;41154;45.394;5.734;2022-08-23T00:59:10;3.00;;;1.90;;
55288;SDS011;41154;45.394;5.734;2022-08-23T01:01:36;3.65;;;1.65;;
55288;SDS011;41154;45.394;5.734;2022-08-23T01:04:03;3.10;;;1.75;;
55288;SDS011;41154;45.394;5.734;2022-08-23T01:06:34;3.25;;;1.90;;
55288;SDS011;41154;45.394;5.734;2022-08-23T01:09:10;3.53;;;1.60;;
55288;SDS011;41154;45.394;5.734;2022-08-23T01:14:09;7.78;;;1.67;;
55288;SDS011;41154;45.394;5.734;2022-08-23T01:16:42;4.00;;;1.73;;
55288;SDS011;41154;45.394;5.734;2022-08-23T01:19:24;3.08;;;1.73;;
55288;SDS011;41154;45.394;5.734;2022-08-23T01:24:55;2.33;;;1.88;;
55288;SDS011;41154;45.394;5.734;2022-08-23T01:27:23;3.92;;;1.92;;
55288;SDS011;41154;45.394;5.734;2022-08-23T01:29:49;5.78;;;1.77;;
55288;SDS011;41154;45.394;5.734;2022-08-23T01:32:15;4.40;;;1.70;;
55288;SDS011;41154;45.394;5.734;2022-08-23T01:34:41;3.05;;;2.25;;
55288;SDS011;41154;45.394;5.734;2022-08-23T01:37:07;3.85;;;1.88;;
55288;SDS011;41154;45.394;5.734;2022-08-23T01:39:34;4.32;;;1.70;;
55288;SDS011;41154;45.394;5.734;2022-08-23T01:42:02;2.63;;;1.90;;
55288;SDS011;41154;45.394;5.734;2022-08-23T01:44:28;5.15;;;2.38;;
55288;SDS011;41154;45.394;5.734;2022-08-23T01:46:55;3.22;;;2.08;;
55288;SDS011;41154;45.394;5.734;2022-08-23T01:49:22;4.72;;;2.13;;
55288;SDS011;41154;45.394;5.734;2022-08-23T01:51:48;2.45;;;1.80;;
55288;SDS011;41154;45.394;5.734;2022-08-23T01:54:14;4.00;;;1.80;;
55288;SDS011;41154;45.394;5.734;2022-08-23T01:56:40;2.45;;;1.67;;
55288;SDS011;41154;45.394;5.734;2022-08-23T01:59:10;3.03;;;2.13;;
55288;SDS011;41154;45.394;5.734;2022-08-23T02:01:44;4.65;;;2.15;;
55288;SDS011;41154;45.394;5.734;2022-08-23T02:04:09;5.03;;;1.80;;
55288;SDS011;41154;45.394;5.734;2022-08-23T02:06:39;4.78;;;2.05;;
55288;SDS011;41154;45.394;5.734;2022-08-23T02:09:08;4.72;;;1.80;;
55288;SDS011;41154;45.394;5.734;2022-08-23T02:11:38;4.00;;;1.75;;
55288;SDS011;41154;45.394;5.734;2022-08-23T02:14:09;2.72;;;1.95;;
55288;SDS011;41154;45.394;5.734;2022-08-23T02:16:50;3.13;;;1.80;;
55288;SDS011;41154;45.394;5.734;2022-08-23T02:19:17;4.65;;;1.77;;
55288;SDS011;41154;45.394;5.734;2022-08-23T02:21:43;3.08;;;1.90;;
55288;SDS011;41154;45.394;5.734;2022-08-23T02:24:15;3.35;;;1.90;;
55288;SDS011;41154;45.394;5.734;2022-08-23T02:26:45;3.75;;;1.88;;
55288;SDS011;41154;45.394;5.734;2022-08-23T02:29:15;3.08;;;2.10;;
55288;SDS011;41154;45.394;5.734;2022-08-23T02:31:47;2.20;;;1.80;;
55288;SDS011;41154;45.394;5.734;2022-08-23T02:34:14;3.58;;;1.88;;
55288;SDS011;41154;45.394;5.734;2022-08-23T02:36:41;3.22;;;1.83;;
55288;SDS011;41154;45.394;5.734;2022-08-23T02:39:08;3.60;;;1.60;;
55288;SDS011;41154;45.394;5.734;2022-08-23T02:41:37;3.83;;;2.03;;
55288;SDS011;41154;45.394;5.734;2022-08-23T02:44:07;4.80;;;2.30;;
55288;SDS011;41154;45.394;5.734;2022-08-23T02:46:33;2.85;;;1.73;;
55288;SDS011;41154;45.394;5.734;2022-08-23T02:49:00;3.35;;;2.10;;
55288;SDS011;41154;45.394;5.734;2022-08-23T02:51:26;3.88;;;2.03;;
55288;SDS011;41154;45.394;5.734;2022-08-23T02:53:52;4.28;;;1.67;;
55288;SDS011;41154;45.394;5.734;2022-08-23T02:56:20;4.75;;;2.05;;
55288;SDS011;41154;45.394;5.734;2022-08-23T02:58:50;2.42;;;1.83;;
55288;SDS011;41154;45.394;5.734;2022-08-23T03:01:19;3.47;;;1.90;;
55288;SDS011;41154;45.394;5.734;2022-08-23T03:03:52;3.80;;;1.70;;
55288;SDS011;41154;45.394;5.734;2022-08-23T03:06:18;4.38;;;1.88;;
55288;SDS011;41154;45.394;5.734;2022-08-23T03:08:45;4.07;;;2.10;;
55288;SDS011;41154;45.394;5.734;2022-08-23T03:11:12;9.70;;;2.05;;
55288;SDS011;41154;45.394;5.734;2022-08-23T03:13:43;2.08;;;1.50;;
55288;SDS011;41154;45.394;5.734;2022-08-23T03:16:12;3.60;;;1.98;;
55288;SDS011;41154;45.394;5.734;2022-08-23T03:18:43;3.92;;;1.90;;
55288;SDS011;41154;45.394;5.734;2022-08-23T03:21:10;2.28;;;1.90;;
55288;SDS011;41154;45.394;5.734;2022-08-23T03:23:36;3.95;;;1.80;;
55288;SDS011;41154;45.394;5.734;2022-08-23T03:26:05;2.72;;;2.00;;
55288;SDS011;41154;45.394;5.734;2022-08-23T03:28:34;6.97;;;2.00;;
55288;SDS011;41154;45.394;5.734;2022-08-23T03:31:02;2.15;;;1.80;;
55288;SDS011;41154;45.394;5.734;2022-08-23T03:33:31;4.68;;;2.10;;
55288;SDS011;41154;45.394;5.734;2022-08-23T03:35:58;5.20;;;1.70;;
55288;SDS011;41154;45.394;5.734;2022-08-23T03:38:25;6.03;;;2.00;;
55288;SDS011;41154;45.394;5.734;2022-08-23T03:40:52;3.05;;;1.85;;
55288;SDS011;41154;45.394;5.734;2022-08-23T03:43:20;2.47;;;1.52;;
55288;SDS011;41154;45.394;5.734;2022-08-23T03:45:46;7.60;;;2.10;;
55288;SDS011;41154;45.394;5.734;2022-08-23T03:48:13;1.98;;;1.70;;
55288;SDS011;41154;45.394;5.734;2022-08-23T03:50:39;3.63;;;1.48;;
55288;SDS011;41154;45.394;5.734;2022-08-23T03:53:05;3.50;;;1.90;;
55288;SDS011;41154;45.394;5.734;2022-08-23T03:55:31;3.97;;;2.00;;
55288;SDS011;41154;45.394;5.734;2022-08-23T03:57:57;2.38;;;2.10;;
55288;SDS011;41154;45.394;5.734;2022-08-23T04:00:23;3.70;;;1.65;;
55288;SDS011;41154;45.394;5.734;2022-08-23T04:02:52;4.50;;;2.13;;
55288;SDS011;41154;45.394;5.734;2022-08-23T04:05:19;6.72;;;2.10;;
55288;SDS011;41154;45.394;5.734;2022-08-23T04:08:07;2.08;;;1.80;;
55288;SDS011;41154;45.394;5.734;2022-08-23T04:10:34;4.53;;;2.10;;
55288;SDS011;41154;45.394;5.734;2022-08-23T04:13:00;3.00;;;1.70;;
55288;SDS011;41154;45.394;5.734;2022-08-23T04:15:26;4.38;;;1.85;;
55288;SDS011;41154;45.394;5.734;2022-08-23T04:17:52;3.20;;;1.95;;
55288;SDS011;41154;45.394;5.734;2022-08-23T04:20:19;2.85;;;1.80;;
55288;SDS011;41154;45.394;5.734;2022-08-23T04:22:58;3.30;;;1.83;;
55288;SDS011;41154;45.394;5.734;2022-08-23T04:25:26;3.40;;;1.80;;
55288;SDS011;41154;45.394;5.734;2022-08-23T04:27:52;6.10;;;1.95;;
55288;SDS011;41154;45.394;5.734;2022-08-23T04:30:19;7.10;;;2.35;;
55288;SDS011;41154;45.394;5.734;2022-08-23T04:32:46;8.27;;;2.00;;
55288;SDS011;41154;45.394;5.734;2022-08-23T04:35:13;6.55;;;2.00;;
55288;SDS011;41154;45.394;5.734;2022-08-23T04:37:39;2.40;;;1.75;;
55288;SDS011;41154;45.394;5.734;2022-08-23T04:40:06;4.15;;;2.20;;
55288;SDS011;41154;45.394;5.734;2022-08-23T04:42:51;3.15;;;1.88;;
55288;SDS011;41154;45.394;5.734;2022-08-23T04:45:17;3.15;;;1.88;;
55288;SDS011;41154;45.394;5.734;2022-08-23T04:47:50;4.85;;;2.00;;
55288;SDS011;41154;45.394;5.734;2022-08-23T04:50:16;2.80;;;2.17;;
55288;SDS011;41154;45.394;5.734;2022-08-23T04:53:00;3.03;;;2.05;;
55288;SDS011;41154;45.394;5.734;2022-08-23T04:55:29;4.30;;;1.90;;
55288;SDS011;41154;45.394;5.734;2022-08-23T04:58:03;3.00;;;2.17;;
55288;SDS011;41154;45.394;5.734;2022-08-23T05:00:33;5.38;;;2.20;;
55288;SDS011;41154;45.394;5.734;2022-08-23T05:03:00;4.20;;;1.90;;
55288;SDS011;41154;45.394;5.734;2022-08-23T05:05:26;2.70;;;2.30;;
55288;SDS011;41154;45.394;5.734;2022-08-23T05:07:52;4.03;;;1.95;;
55288;SDS011;41154;45.394;5.734;2022-08-23T05:10:19;2.05;;;1.85;;
55288;SDS011;41154;45.394;5.734;2022-08-23T05:12:49;8.13;;;2.30;;
55288;SDS011;41154;45.394;5.734;2022-08-23T05:15:16;4.20;;;1.95;;
55288;SDS011;41154;45.394;5.734;2022-08-23T05:17:46;5.03;;;2.15;;
55288;SDS011;41154;45.394;5.734;2022-08-23T05:20:12;5.47;;;2.15;;
55288;SDS011;41154;45.394;5.734;2022-08-23T05:22:38;5.35;;;2.20;;
55288;SDS011;41154;45.394;5.734;2022-08-23T05:25:26;4.95;;;2.22;;
55288;SDS011;41154;45.394;5.734;2022-08-23T05:28:13;4.47;;;2.38;;
55288;SDS011;41154;45.394;5.734;2022-08-23T05:30:39;4.53;;;2.25;;
55288;SDS011;41154;45.394;5.734;2022-08-23T05:33:05;6.80;;;2.30;;
55288;SDS011;41154;45.394;5.734;2022-08-23T05:35:31;3.83;;;2.45;;
55288;SDS011;41154;45.394;5.734;2022-08-23T05:37:56;2.35;;;2.00;;
55288;SDS011;41154;45.394;5.734;2022-08-23T05:40:26;4.15;;;1.90;;
55288;SDS011;41154;45.394;5.734;2022-08-23T05:43:02;1.77;;;1.50;;
55288;SDS011;41154;45.394;5.734;2022-08-23T05:45:28;2.03;;;1.52;;
55288;SDS011;41154;45.394;5.734;2022-08-23T05:47:54;4.03;;;2.10;;
55288;SDS011;41154;45.394;5.734;2022-08-23T05:50:25;3.28;;;1.67;;
55288;SDS011;41154;45.394;5.734;2022-08-23T05:52:51;3.08;;;1.70;;
55288;SDS011;41154;45.394;5.734;2022-08-23T05:55:18;2.22;;;1.73;;
55288;SDS011;41154;45.394;5.734;2022-08-23T05:58:10;3.55;;;2.08;;
55288;SDS011;41154;45.394;5.734;2022-08-23T06:00:36;4.10;;;2.45;;
55288;SDS011;41154;45.394;5.734;2022-08-23T06:03:02;2.20;;;1.75;;
55288;SDS011;41154;45.394;5.734;2022-08-23T06:05:28;3.85;;;2.00;;
55288;SDS011;41154;45.394;5.734;2022-08-23T06:07:54;3.40;;;2.42;;
55288;SDS011;41154;45.394;5.734;2022-08-23T06:10:22;5.60;;;2.28;;
55288;SDS011;41154;45.394;5.734;2022-08-23T06:12:55;5.60;;;2.53;;
55288;SDS011;41154;45.394;5.734;2022-08-23T06:15:20;6.95;;;2.50;;
55288;SDS011;41154;45.394;5.734;2022-08-23T06:17:46;3.13;;;1.90;;
55288;SDS011;41154;45.394;5.734;2022-08-23T06:20:12;14.43;;;2.63;;
55288;SDS011;41154;45.394;5.734;2022-08-23T06:23:06;2.85;;;1.70;;
55288;SDS011;41154;45.394;5.734;2022-08-23T06:25:36;4.65;;;1.90;;
55288;SDS011;41154;45.394;5.734;2022-08-23T06:28:23;7.03;;;1.98;;
55288;SDS011;41154;45.394;5.734;2022-08-23T06:30:53;2.80;;;1.70;;
55288;SDS011;41154;45.394;5.734;2022-08-23T06:33:27;2.25;;;1.73;;
55288;SDS011;41154;45.394;5.734;2022-08-23T06:36:04;2.35;;;2.00;;
55288;SDS011;41154;45.394;5.734;2022-08-23T06:38:49;4.57;;;2.08;;
55288;SDS011;41154;45.394;5.734;2022-08-23T06:41:35;5.55;;;2.15;;
55288;SDS011;41154;45.394;5.734;2022-08-23T06:44:19;4.65;;;2.22;;
55288;SDS011;41154;45.394;5.734;2022-08-23T06:46:54;3.67;;;2.10;;
55288;SDS011;41154;45.394;5.734;2022-08-23T06:49:21;7.57;;;2.35;;
55288;SDS011;41154;45.394;5.734;2022-08-23T06:51:49;3.53;;;1.90;;
55288;SDS011;41154;45.394;5.734;2022-08-23T06:54:20;5.20;;;1.98;;
55288;SDS011;41154;45.394;5.734;2022-08-23T06:57:06;3.03;;;2.10;;
55288;SDS011;41154;45.394;5.734;2022-08-23T06:59:49;4.50;;;1.95;;
55288;SDS011;41154;45.394;5.734;2022-08-23T07:02:33;5.00;;;1.85;;
55288;SDS011;41154;45.394;5.734;2022-08-23T07:05:19;5.55;;;2.08;;
55288;SDS011;41154;45.394;5.734;2022-08-23T07:07:58;5.65;;;2.08;;
55288;SDS011;41154;45.394;5.734;2022-08-23T07:10:23;4.22;;;2.17;;
55288;SDS011;41154;45.394;5.734;2022-08-23T07:12:50;4.85;;;2.00;;
55288;SDS011;41154;45.394;5.734;2022-08-23T07:15:18;3.17;;;2.10;;
55288;SDS011;41154;45.394;5.734;2022-08-23T07:17:45;3.95;;;1.92;;
55288;SDS011;41154;45.394;5.734;2022-08-23T07:20:11;3.35;;;2.10;;
55288;SDS011;41154;45.394;5.734;2022-08-23T07:22:40;8.18;;;2.28;;
55288;SDS011;41154;45.394;5.734;2022-08-23T07:25:07;3.92;;;2.28;;
55288;SDS011;41154;45.394;5.734;2022-08-23T07:27:34;7.90;;;2.42;;
55288;SDS011;41154;45.394;5.734;2022-08-23T07:30:03;5.00;;;2.30;;
55288;SDS011;41154;45.394;5.734;2022-08-23T07:32:29;3.60;;;1.88;;
55288;SDS011;41154;45.394;5.734;2022-08-23T07:34:58;3.65;;;1.95;;
55288;SDS011;41154;45.394;5.734;2022-08-23T07:37:25;4.50;;;2.03;;
55288;SDS011;41154;45.394;5.734;2022-08-23T07:39:52;7.90;;;2.40;;
55288;SDS011;41154;45.394;5.734;2022-08-23T07:42:18;3.58;;;2.10;;
55288;SDS011;41154;45.394;5.734;2022-08-23T07:44:45;10.52;;;1.90;;
55288;SDS011;41154;45.394;5.734;2022-08-23T07:47:11;3.20;;;1.80;;
55288;SDS011;41154;45.394;5.734;2022-08-23T07:49:37;3.05;;;1.98;;
55288;SDS011;41154;45.394;5.734;2022-08-23T07:52:03;2.72;;;1.60;;
55288;SDS011;41154;45.394;5.734;2022-08-23T07:54:29;3.22;;;1.70;;
55288;SDS011;41154;45.394;5.734;2022-08-23T07:57:14;3.08;;;1.73;;
55288;SDS011;41154;45.394;5.734;2022-08-23T07:59:50;2.40;;;1.40;;
55288;SDS011;41154;45.394;5.734;2022-08-23T08:02:39;3.03;;;1.90;;
55288;SDS011;41154;45.394;5.734;2022-08-23T08:05:12;1.98;;;1.50;;
55288;SDS011;41154;45.394;5.734;2022-08-23T08:07:39;2.67;;;1.30;;
55288;SDS011;41154;45.394;5.734;2022-08-23T08:10:05;1.40;;;1.10;;
55288;SDS011;41154;45.394;5.734;2022-08-23T08:12:31;4.15;;;1.35;;
55288;SDS011;41154;45.394;5.734;2022-08-23T08:15:03;2.78;;;1.30;;
55288;SDS011;41154;45.394;5.734;2022-08-23T08:17:36;4.28;;;1.95;;
55288;SDS011;41154;45.394;5.734;2022-08-23T08:20:02;2.20;;;1.70;;
55288;SDS011;41154;45.394;5.734;2022-08-23T08:22:37;3.42;;;2.00;;
55288;SDS011;41154;45.394;5.734;2022-08-23T08:25:10;2.55;;;1.60;;
55288;SDS011;41154;45.394;5.734;2022-08-23T08:27:39;2.88;;;1.48;;
55288;SDS011;41154;45.394;5.734;2022-08-23T08:30:06;1.92;;;1.58;;
55288;SDS011;41154;45.394;5.734;2022-08-23T08:32:34;1.27;;;1.10;;
55288;SDS011;41154;45.394;5.734;2022-08-23T08:35:00;1.95;;;1.40;;
55288;SDS011;41154;45.394;5.734;2022-08-23T08:37:27;1.67;;;1.20;;
55288;SDS011;41154;45.394;5.734;2022-08-23T08:39:53;4.32;;;1.55;;
55288;SDS011;41154;45.394;5.734;2022-08-23T08:45:17;3.88;;;1.55;;
55288;SDS011;41154;45.394;5.734;2022-08-23T08:47:59;2.92;;;1.50;;
55288;SDS011;41154;45.394;5.734;2022-08-23T08:50:40;2.47;;;1.48;;
55288;SDS011;41154;45.394;5.734;2022-08-23T08:53:16;3.45;;;1.42;;
55288;SDS011;41154;45.394;5.734;2022-08-23T08:56:29;2.45;;;1.50;;
55288;SDS011;41154;45.394;5.734;2022-08-23T09:01:47;2.80;;;1.40;;
55288;SDS011;41154;45.394;5.734;2022-08-23T09:04:21;4.28;;;1.30;;
55288;SDS011;41154;45.394;5.734;2022-08-23T09:12:51;2.90;;;1.60;;
55288;SDS011;41154;45.394;5.734;2022-08-23T09:15:32;3.10;;;1.50;;
55288;SDS011;41154;45.394;5.734;2022-08-23T09:18:25;2.65;;;1.40;;
55288;SDS011;41154;45.394;5.734;2022-08-23T09:20:53;2.10;;;1.42;;
55288;SDS011;41154;45.394;5.734;2022-08-23T09:23:25;7.10;;;1.75;;
55288;SDS011;41154;45.394;5.734;2022-08-23T09:25:59;2.95;;;1.70;;
55288;SDS011;41154;45.394;5.734;2022-08-23T09:28:37;3.60;;;1.65;;
55288;SDS011;41154;45.394;5.734;2022-08-23T09:31:05;2.10;;;1.50;;
55288;SDS011;41154;45.394;5.734;2022-08-23T09:33:36;3.33;;;1.50;;
55288;SDS011;41154;45.394;5.734;2022-08-23T09:38:49;3.53;;;1.35;;
55288;SDS011;41154;45.394;5.734;2022-08-23T09:41:17;2.47;;;1.77;;
55288;SDS011;41154;45.394;5.734;2022-08-23T09:43:50;2.15;;;1.50;;
55288;SDS011;41154;45.394;5.734;2022-08-23T09:46:25;3.53;;;1.98;;
55288;SDS011;41154;45.394;5.734;2022-08-23T09:48:52;3.42;;;1.42;;
55288;SDS011;41154;45.394;5.734;2022-08-23T09:51:35;2.60;;;1.92;;
55288;SDS011;41154;45.394;5.734;2022-08-23T09:54:19;5.72;;;1.75;;
55288;SDS011;41154;45.394;5.734;2022-08-23T09:56:51;2.80;;;1.85;;
55288;SDS011;41154;45.394;5.734;2022-08-23T10:01:57;3.97;;;1.85;;
55288;SDS011;41154;45.394;5.734;2022-08-23T10:06:53;3.15;;;1.92;;
55288;SDS011;41154;45.394;5.734;2022-08-23T10:09:27;3.05;;;1.95;;
55288;SDS011;41154;45.394;5.734;2022-08-23T10:11:56;3.97;;;1.67;;
55288;SDS011;41154;45.394;5.734;2022-08-23T10:14:24;2.20;;;1.88;;
55288;SDS011;41154;45.394;5.734;2022-08-23T10:16:55;2.95;;;1.83;;
55288;SDS011;41154;45.394;5.734;2022-08-23T10:19:47;4.55;;;1.70;;
55288;SDS011;41154;45.394;5.734;2022-08-23T10:22:27;5.68;;;2.13;;
55288;SDS011;41154;45.394;5.734;2022-08-23T10:28:04;2.67;;;1.80;;
55288;SDS011;41154;45.394;5.734;2022-08-23T10:31:13;6.72;;;1.90;;
55288;SDS011;41154;45.394;5.734;2022-08-23T10:40:02;2.85;;;1.95;;
55288;SDS011;41154;45.394;5.734;2022-08-23T10:50:57;3.25;;;2.00;;
55288;SDS011;41154;45.394;5.734;2022-08-23T10:53:31;2.25;;;1.80;;
55288;SDS011;41154;45.394;5.734;2022-08-23T10:56:02;2.65;;;1.90;;
55288;SDS011;41154;45.394;5.734;2022-08-23T10:58:51;4.18;;;1.92;;
55288;SDS011;41154;45.394;5.734;2022-08-23T11:01:24;2.03;;;1.70;;
55288;SDS011;41154;45.394;5.734;2022-08-23T11:06:58;3.55;;;1.60;;
55288;SDS011;41154;45.394;5.734;2022-08-23T11:09:29;3.58;;;1.92;;
55288;SDS011;41154;45.394;5.734;2022-08-23T11:15:17;2.33;;;1.73;;
55288;SDS011;41154;45.394;5.734;2022-08-23T11:18:11;1.98;;;1.63;;
55288;SDS011;41154;45.394;5.734;2022-08-23T11:20:52;2.25;;;1.50;;
55288;SDS011;41154;45.394;5.734;2022-08-23T11:24:30;3.38;;;2.30;;
55288;SDS011;41154;45.394;5.734;2022-08-23T11:31:31;2.70;;;1.83;;
55288;SDS011;41154;45.394;5.734;2022-08-23T11:45:22;3.47;;;1.77;;
55288;SDS011;41154;45.394;5.734;2022-08-23T12:01:13;2.57;;;1.77;;
55288;SDS011;41154;45.394;5.734;2022-08-23T12:03:50;3.58;;;1.70;;
55288;SDS011;41154;45.394;5.734;2022-08-23T12:06:34;2.58;;;1.80;;
55288;SDS011;41154;45.394;5.734;2022-08-23T12:09:01;2.13;;;1.70;;
55288;SDS011;41154;45.394;5.734;2022-08-23T12:16:55;2.47;;;1.67;;
55288;SDS011;41154;45.394;5.734;2022-08-23T12:22:06;2.00;;;1.60;;
55288;SDS011;41154;45.394;5.734;2022-08-23T12:30:19;3.08;;;1.80;;
55288;SDS011;41154;45.394;5.734;2022-08-23T12:33:00;2.58;;;1.92;;
55288;SDS011;41154;45.394;5.734;2022-08-23T12:41:49;2.72;;;1.90;;
55288;SDS011;41154;45.394;5.734;2022-08-23T12:44:40;3.25;;;1.80;;
55288;SDS011;41154;45.394;5.734;2022-08-23T12:47:13;2.78;;;1.80;;
55288;SDS011;41154;45.394;5.734;2022-08-23T12:49:41;1.85;;;1.60;;
55288;SDS011;41154;45.394;5.734;2022-08-23T12:52:22;2.38;;;1.65;;
55288;SDS011;41154;45.394;5.734;2022-08-23T12:54:52;2.13;;;1.70;;
55288;SDS011;41154;45.394;5.734;2022-08-23T12:57:40;4.70;;;1.77;;
55288;SDS011;41154;45.394;5.734;2022-08-23T13:02:40;2.58;;;1.52;;
55288;SDS011;41154;45.394;5.734;2022-08-23T13:05:18;1.90;;;1.67;;
55288;SDS011;41154;45.394;5.734;2022-08-23T13:07:53;5.88;;;1.70;;
55288;SDS011;41154;45.394;5.734;2022-08-23T13:10:19;2.90;;;1.63;;
55288;SDS011;41154;45.394;5.734;2022-08-23T13:12:45;3.17;;;1.55;;
55288;SDS011;41154;45.394;5.734;2022-08-23T13:15:11;6.45;;;1.98;;
55288;SDS011;41154;45.394;5.734;2022-08-23T13:17:58;1.83;;;1.52;;
55288;SDS011;41154;45.394;5.734;2022-08-23T13:20:25;4.03;;;1.75;;
55288;SDS011;41154;45.394;5.734;2022-08-23T13:23:02;2.55;;;1.45;;
55288;SDS011;41154;45.394;5.734;2022-08-23T13:25:31;2.78;;;1.50;;
55288;SDS011;41154;45.394;5.734;2022-08-23T13:28:02;6.30;;;1.85;;
55288;SDS011;41154;45.394;5.734;2022-08-23T13:30:56;1.77;;;1.52;;
55288;SDS011;41154;45.394;5.734;2022-08-23T13:33:24;2.10;;;1.70;;
55288;SDS011;41154;45.394;5.734;2022-08-23T13:35:50;3.03;;;1.55;;
55288;SDS011;41154;45.394;5.734;2022-08-23T13:38:30;3.50;;;1.77;;
55288;SDS011;41154;45.394;5.734;2022-08-23T13:41:01;3.78;;;1.80;;
55288;SDS011;41154;45.394;5.734;2022-08-23T13:46:10;4.60;;;1.80;;
55288;SDS011;41154;45.394;5.734;2022-08-23T13:54:01;2.78;;;1.85;;
55288;SDS011;41154;45.394;5.734;2022-08-23T13:56:31;2.05;;;1.85;;
55288;SDS011;41154;45.394;5.734;2022-08-23T14:02:13;5.25;;;2.08;;
55288;SDS011;41154;45.394;5.734;2022-08-23T14:04:40;3.10;;;1.80;;
55288;SDS011;41154;45.394;5.734;2022-08-23T14:07:09;2.00;;;1.80;;
55288;SDS011;41154;45.394;5.734;2022-08-23T14:09:35;4.88;;;1.80;;
55288;SDS011;41154;45.394;5.734;2022-08-23T14:12:04;4.00;;;1.52;;
55288;SDS011;41154;45.394;5.734;2022-08-23T14:14:33;3.22;;;1.75;;
55288;SDS011;41154;45.394;5.734;2022-08-23T14:17:00;5.25;;;2.00;;
55288;SDS011;41154;45.394;5.734;2022-08-23T14:19:27;8.13;;;2.42;;
55288;SDS011;41154;45.394;5.734;2022-08-23T14:21:55;1.90;;;1.45;;
55288;SDS011;41154;45.394;5.734;2022-08-23T14:24:21;2.70;;;2.05;;
55288;SDS011;41154;45.394;5.734;2022-08-23T14:26:46;3.08;;;1.48;;
55288;SDS011;41154;45.394;5.734;2022-08-23T14:29:12;3.13;;;1.70;;
55288;SDS011;41154;45.394;5.734;2022-08-23T14:31:38;2.50;;;1.58;;
55288;SDS011;41154;45.394;5.734;2022-08-23T14:34:04;2.55;;;1.50;;
55288;SDS011;41154;45.394;5.734;2022-08-23T14:36:30;2.30;;;1.60;;
55288;SDS011;41154;45.394;5.734;2022-08-23T14:38:56;2.80;;;1.40;;
55288;SDS011;41154;45.394;5.734;2022-08-23T14:41:22;3.95;;;1.48;;
55288;SDS011;41154;45.394;5.734;2022-08-23T14:43:50;2.78;;;1.77;;
55288;SDS011;41154;45.394;5.734;2022-08-23T14:46:17;2.33;;;1.65;;
55288;SDS011;41154;45.394;5.734;2022-08-23T14:48:44;2.65;;;1.50;;
55288;SDS011;41154;45.394;5.734;2022-08-23T14:51:23;3.85;;;1.50;;
55288;SDS011;41154;45.394;5.734;2022-08-23T14:53:50;2.53;;;1.60;;
55288;SDS011;41154;45.394;5.734;2022-08-23T14:56:16;3.03;;;1.42;;
55288;SDS011;41154;45.394;5.734;2022-08-23T14:58:42;3.15;;;1.60;;
55288;SDS011;41154;45.394;5.734;2022-08-23T15:01:09;3.42;;;1.70;;
55288;SDS011;41154;45.394;5.734;2022-08-23T15:03:36;3.88;;;1.33;;
55288;SDS011;41154;45.394;5.734;2022-08-23T15:06:06;2.58;;;1.60;;
55288;SDS011;41154;45.394;5.734;2022-08-23T15:08:33;2.55;;;1.40;;
55288;SDS011;41154;45.394;5.734;2022-08-23T15:11:00;4.63;;;1.52;;
55288;SDS011;41154;45.394;5.734;2022-08-23T15:13:26;1.73;;;1.30;;
55288;SDS011;41154;45.394;5.734;2022-08-23T15:15:52;2.42;;;1.25;;
55288;SDS011;41154;45.394;5.734;2022-08-23T15:18:18;1.85;;;1.40;;
55288;SDS011;41154;45.394;5.734;2022-08-23T15:20:44;2.90;;;1.60;;
55288;SDS011;41154;45.394;5.734;2022-08-23T15:23:10;2.25;;;1.13;;
55288;SDS011;41154;45.394;5.734;2022-08-23T15:25:37;2.58;;;1.75;;
55288;SDS011;41154;45.394;5.734;2022-08-23T15:28:07;2.90;;;1.80;;
55288;SDS011;41154;45.394;5.734;2022-08-23T15:30:34;2.53;;;1.50;;
55288;SDS011;41154;45.394;5.734;2022-08-23T15:33:01;2.55;;;1.50;;
55288;SDS011;41154;45.394;5.734;2022-08-23T15:35:27;1.90;;;1.40;;
55288;SDS011;41154;45.394;5.734;2022-08-23T15:37:54;2.67;;;1.65;;
55288;SDS011;41154;45.394;5.734;2022-08-23T15:40:21;3.60;;;1.60;;
55288;SDS011;41154;45.394;5.734;2022-08-23T15:42:47;4.20;;;1.40;;
55288;SDS011;41154;45.394;5.734;2022-08-23T15:45:13;2.92;;;1.70;;
55288;SDS011;41154;45.394;5.734;2022-08-23T15:47:42;2.88;;;1.50;;
55288;SDS011;41154;45.394;5.734;2022-08-23T15:50:12;3.65;;;1.58;;
55288;SDS011;41154;45.394;5.734;2022-08-23T15:52:39;4.85;;;1.40;;
55288;SDS011;41154;45.394;5.734;2022-08-23T15:55:05;1.85;;;1.33;;
55288;SDS011;41154;45.394;5.734;2022-08-23T15:57:31;3.47;;;1.50;;
55288;SDS011;41154;45.394;5.734;2022-08-23T16:00:05;2.40;;;1.20;;
55288;SDS011;41154;45.394;5.734;2022-08-23T16:02:37;9.90;;;1.63;;
55288;SDS011;41154;45.394;5.734;2022-08-23T16:05:03;7.40;;;1.63;;
55288;SDS011;41154;45.394;5.734;2022-08-23T16:07:30;1.75;;;1.35;;
55288;SDS011;41154;45.394;5.734;2022-08-23T16:09:57;2.65;;;1.30;;
55288;SDS011;41154;45.394;5.734;2022-08-23T16:12:28;3.13;;;1.40;;
55288;SDS011;41154;45.394;5.734;2022-08-23T16:14:54;6.65;;;1.55;;
55288;SDS011;41154;45.394;5.734;2022-08-23T16:17:20;3.28;;;1.50;;
55288;SDS011;41154;45.394;5.734;2022-08-23T16:19:46;2.85;;;1.40;;
55288;SDS011;41154;45.394;5.734;2022-08-23T16:22:12;2.65;;;1.38;;
55288;SDS011;41154;45.394;5.734;2022-08-23T16:24:38;1.60;;;1.20;;
55288;SDS011;41154;45.394;5.734;2022-08-23T16:27:04;3.45;;;1.35;;
55288;SDS011;41154;45.394;5.734;2022-08-23T16:29:31;3.67;;;1.40;;
55288;SDS011;41154;45.394;5.734;2022-08-23T16:32:00;1.98;;;1.30;;
55288;SDS011;41154;45.394;5.734;2022-08-23T16:34:29;2.22;;;1.45;;
55288;SDS011;41154;45.394;5.734;2022-08-23T16:36:56;1.70;;;1.30;;
55288;SDS011;41154;45.394;5.734;2022-08-23T16:39:24;1.98;;;1.33;;
55288;SDS011;41154;45.394;5.734;2022-08-23T16:41:50;2.05;;;1.25;;
55288;SDS011;41154;45.394;5.734;2022-08-23T16:44:16;1.60;;;1.23;;
55288;SDS011;41154;45.394;5.734;2022-08-23T16:46:42;2.95;;;1.45;;
55288;SDS011;41154;45.394;5.734;2022-08-23T16:49:12;2.40;;;1.20;;
55288;SDS011;41154;45.394;5.734;2022-08-23T16:51:40;4.47;;;1.58;;
55288;SDS011;41154;45.394;5.734;2022-08-23T16:54:06;2.75;;;1.27;;
55288;SDS011;41154;45.394;5.734;2022-08-23T16:56:33;4.30;;;1.40;;
55288;SDS011;41154;45.394;5.734;2022-08-23T16:59:01;2.20;;;1.00;;
55288;SDS011;41154;45.394;5.734;2022-08-23T17:01:29;3.03;;;1.42;;
55288;SDS011;41154;45.394;5.734;2022-08-23T17:03:57;2.97;;;1.45;;